Date,TemperatureHighF,TemperatureAvgF,TemperatureLowF,DewpointHighF,DewpointAvgF,DewpointLowF,HumidityHigh,HumidityAvg,HumidityLow,PressureMaxIn,PressureMinIn,WindSpeedMaxMPH,WindSpeedAvgMPH,GustSpeedMaxMPH,PrecipitationSumIn
2013-3-2,61,51,39,40,32,23,90,55,29,29.92,29.92,22,6,33,0.00
2013-3-3,58,45,35,40,32,28,87,62,36,29.92,29.92,22,6,30,0.00
2013-3-4,73,50,31,42,26,6,98,54,11,29.92,29.92,11,2,15,0.00
2013-3-5,81,60,38,70,45,37,99,66,27,29.92,29.92,16,4,21,0.22
2013-3-6,71,59,47,58,38,10,90,55,14,29.92,29.92,26,8,34,0.01
2013-3-7,75,55,39,45,36,29,94,55,24,29.92,29.92,11,4,18,0.00
2013-3-8,80,59,37,51,39,16,99,62,13,29.92,29.92,11,2,15,0.00
2013-3-9,77,63,52,52,48,42,96,64,33,29.92,29.92,13,4,17,0.00
2013-3-10,82,63,58,56,52,49,81,70,37,29.92,29.92,14,3,21,0.00
2013-3-11,80,68,52,61,56,52,98,70,44,29.92,29.92,17,4,24,0.00
2013-3-12,74,67,56,68,63,54,99,88,75,29.92,29.92,14,6,22,0.21
2013-3-13,56,54,53,54,53,52,98,97,94,29.92,29.92,6,3,10,0.00
2013-3-24,84,76,67,75,71,62,99,84,65,29.92,29.92,27,8,36,0.11
2013-3-25,77,66,52,69,41,8,96,52,12,29.92,29.92,17,7,24,0.00
2013-3-26,62,53,45,44,28,14,75,44,19,29.92,29.92,23,8,32,0.00
2013-3-27,67,51,34,39,30,17,97,53,18,29.92,29.92,14,4,21,0.00
2013-3-28,75,56,35,48,30,7,99,54,12,29.92,29.92,14,3,18,0.00
2013-3-29,80,59,40,51,36,17,99,57,14,29.92,29.92,14,2,21,0.00
2013-3-30,84,64,44,60,46,34,99,61,21,29.92,29.92,12,2,17,0.00
2013-3-31,86,70,55,60,53,44,92,60,30,29.92,29.92,16,3,22,0.00